Time;durP1;ratioP1;P1;durP2;ratioP2;P2;SDS_P1;SDS_P2;PMS_P1;PMS_P2;Temp;Humidity;BMP_temperature;BMP_pressure;BME280_temperature;BME280_humidity;BME280_pressure;Samples;Min_cycle;Max_cycle;Signal;HPM_P1;HPM_P2
2021/09/15 00:01:28;;;;;;;9.40;7.37;;;17.40;99.90;;;;;;4994504;28;20336;-61
2021/09/15 00:03:58;;;;;;;9.63;7.13;;;17.30;99.90;;;;;;4983317;28;20254;-61
2021/09/15 00:06:27;;;;;;;7.53;6.83;;;17.30;99.90;;;;;;5001002;28;20264;-62
2021/09/15 00:08:55;;;;;;;10.20;8.13;;;17.30;99.90;;;;;;4998478;28;20299;-62
2021/09/15 00:11:23;;;;;;;8.43;7.33;;;17.30;99.90;;;;;;4997043;28;20234;-62
2021/09/15 00:13:51;;;;;;;9.73;7.70;;;17.40;99.90;;;;;;4993387;28;20242;-63
2021/09/15 00:16:21;;;;;;;7.90;7.20;;;17.40;99.90;;;;;;4998442;28;20238;-62
2021/09/15 00:18:49;;;;;;;11.93;7.37;;;17.30;99.90;;;;;;4993544;28;20242;-62
2021/09/15 00:21:17;;;;;;;10.27;7.47;;;17.30;99.90;;;;;;4989231;28;20244;-61
2021/09/15 00:23:45;;;;;;;9.50;8.47;;;17.40;99.90;;;;;;4992211;28;20705;-62
2021/09/15 00:26:13;;;;;;;11.03;7.67;;;17.30;99.90;;;;;;4996311;28;20242;-62
2021/09/15 00:28:41;;;;;;;8.43;7.63;;;17.30;99.90;;;;;;4994493;28;20234;-63
2021/09/15 00:31:09;;;;;;;8.07;7.37;;;17.30;99.90;;;;;;4990014;28;20324;-63
2021/09/15 00:33:39;;;;;;;8.67;7.10;;;17.20;99.90;;;;;;4994798;28;20657;-63
2021/09/15 00:36:07;;;;;;;8.87;7.83;;;17.40;99.90;;;;;;4998076;28;20721;-63
2021/09/15 00:38:35;;;;;;;7.80;7.00;;;17.30;99.90;;;;;;4989857;28;20247;-61
2021/09/15 00:41:04;;;;;;;9.97;8.23;;;17.30;99.90;;;;;;4998037;28;20294;-62
2021/09/15 00:43:34;;;;;;;9.30;7.70;;;17.30;99.90;;;;;;4988115;28;20252;-62
2021/09/15 00:46:02;;;;;;;8.60;7.80;;;17.30;99.90;;;;;;5000625;28;20292;-62
2021/09/15 00:48:30;;;;;;;8.97;8.07;;;17.30;99.90;;;;;;4982625;28;20242;-62
2021/09/15 00:51:00;;;;;;;8.57;7.60;;;17.30;99.90;;;;;;4998133;28;20337;-61
2021/09/15 00:53:29;;;;;;;10.33;7.77;;;17.30;99.90;;;;;;4992473;28;20234;-62
2021/09/15 00:55:58;;;;;;;8.40;7.43;;;17.30;99.90;;;;;;4989564;28;20244;-62
2021/09/15 00:58:26;;;;;;;10.13;8.07;;;17.30;99.90;;;;;;4993704;28;20296;-62
2021/09/15 01:00:55;;;;;;;9.03;8.13;;;17.30;99.90;;;;;;4995183;28;20290;-62
2021/09/15 01:03:23;;;;;;;9.23;8.13;;;17.30;99.90;;;;;;4998092;28;20257;-62
2021/09/15 01:05:52;;;;;;;8.53;7.70;;;17.20;99.90;;;;;;5007469;28;20602;-61
2021/09/15 01:08:23;;;;;;;8.73;7.83;;;17.20;99.90;;;;;;4991224;28;20229;-62
2021/09/15 01:10:53;;;;;;;8.40;7.33;;;17.30;99.90;;;;;;4990467;28;20653;-62
2021/09/15 01:13:28;;;;;;;8.93;8.00;;;17.30;99.90;;;;;;4988647;28;20236;-62
2021/09/15 01:16:51;;;;;;;8.50;7.70;;;17.20;99.90;;;;;;4991739;28;20238;-63
2021/09/15 01:19:38;;;;;;;8.90;7.60;;;17.30;99.90;;;;;;4985867;28;20728;-62
2021/09/15 01:22:28;;;;;;;8.43;7.57;;;17.30;99.90;;;;;;4992371;28;20242;-61
2021/09/15 01:25:18;;;;;;;9.27;8.33;;;17.30;99.90;;;;;;4993676;28;20237;-62
2021/09/15 01:28:24;;;;;;;8.77;7.60;;;17.30;99.90;;;;;;4946229;28;20268;-62
2021/09/15 01:31:01;;;;;;;9.83;7.17;;;17.40;99.90;;;;;;4939181;28;20246;-62
2021/09/15 01:33:29;;;;;;;8.70;7.40;;;17.30;99.90;;;;;;4965614;28;20239;-62
2021/09/15 01:35:59;;;;;;;8.83;7.93;;;17.40;99.90;;;;;;4970582;28;20230;-62
2021/09/15 01:38:29;;;;;;;9.57;7.70;;;17.40;99.90;;;;;;4973594;28;20254;-62
2021/09/15 01:40:58;;;;;;;8.97;8.07;;;17.40;99.90;;;;;;4971235;28;20310;-63
2021/09/15 01:43:28;;;;;;;9.50;8.50;;;17.30;99.90;;;;;;4981445;28;20574;-62
2021/09/15 01:45:56;;;;;;;8.50;7.80;;;17.30;99.90;;;;;;5002721;28;20288;-62
2021/09/15 01:48:25;;;;;;;9.10;7.43;;;17.30;99.90;;;;;;4996465;28;20230;-61
2021/09/15 01:50:53;;;;;;;9.67;7.90;;;17.30;99.90;;;;;;5016965;28;20238;-63
2021/09/15 01:53:21;;;;;;;8.00;7.27;;;17.30;99.90;;;;;;4987704;28;20234;-62
2021/09/15 01:55:51;;;;;;;8.47;7.50;;;17.30;99.90;;;;;;5000632;28;20668;-61
2021/09/15 01:58:31;;;;;;;7.90;7.23;;;17.30;99.90;;;;;;4998477;28;20242;-63
2021/09/15 02:01:19;;;;;;;9.10;7.37;;;17.40;99.90;;;;;;4993317;28;20234;-62
2021/09/15 02:03:57;;;;;;;8.23;7.27;;;17.40;99.90;;;;;;4995365;28;20722;-62
2021/09/15 02:06:50;;;;;;;8.20;7.20;;;17.40;99.90;;;;;;4985963;28;20234;-62
2021/09/15 02:09:35;;;;;;;7.63;6.80;;;17.40;99.90;;;;;;5010826;28;20264;-62
2021/09/15 02:12:14;;;;;;;7.87;7.13;;;17.40;99.90;;;;;;5004806;28;20238;-62
2021/09/15 02:14:43;;;;;;;7.40;6.80;;;17.40;99.90;;;;;;5002582;28;20252;-63
2021/09/15 02:17:14;;;;;;;8.17;6.33;;;17.40;99.90;;;;;;5010252;28;20287;-62
2021/09/15 02:19:45;;;;;;;10.47;7.13;;;17.30;99.90;;;;;;5008790;28;20233;-61
2021/09/15 02:22:32;;;;;;;8.63;7.83;;;17.20;99.90;;;;;;4992352;28;20316;-62
2021/09/15 02:25:15;;;;;;;8.67;7.87;;;17.20;99.90;;;;;;4995101;28;20248;-61
2021/09/15 02:28:04;;;;;;;8.10;7.30;;;17.20;99.90;;;;;;4997153;28;20246;-63
2021/09/15 02:30:50;;;;;;;8.27;7.47;;;17.30;99.90;;;;;;4987793;28;20231;-62
2021/09/15 02:33:35;;;;;;;10.90;8.40;;;17.30;99.90;;;;;;5009405;28;20296;-63
2021/09/15 02:36:04;;;;;;;8.80;7.93;;;17.30;99.90;;;;;;4998124;28;20240;-62
2021/09/15 02:38:50;;;;;;;9.93;8.40;;;17.20;99.90;;;;;;4991483;28;20248;-62
2021/09/15 02:41:34;;;;;;;10.57;8.97;;;17.20;99.90;;;;;;5015961;28;20301;-63
2021/09/15 02:44:20;;;;;;;10.97;9.33;;;17.10;99.90;;;;;;4995230;28;20237;-61
2021/09/15 02:47:08;;;;;;;9.13;8.33;;;17.00;99.90;;;;;;5010336;28;20585;-63
2021/09/15 02:49:55;;;;;;;10.20;9.30;;;17.00;99.90;;;;;;4997101;28;20404;-63
2021/09/15 02:52:41;;;;;;;8.93;8.10;;;16.90;99.90;;;;;;4986878;28;20249;-62
2021/09/15 02:55:28;;;;;;;9.30;8.50;;;16.80;99.90;;;;;;5013653;28;20300;-61
2021/09/15 02:58:09;;;;;;;10.60;9.27;;;16.80;99.90;;;;;;4998812;28;20244;-63
2021/09/15 03:00:49;;;;;;;9.70;8.80;;;16.90;99.90;;;;;;5007445;28;20238;-64
2021/09/15 03:03:29;;;;;;;11.77;9.60;;;16.90;99.90;;;;;;4985854;28;20239;-62
2021/09/15 03:06:07;;;;;;;9.87;9.00;;;16.90;99.90;;;;;;4997299;28;20241;-62
2021/09/15 03:08:55;;;;;;;11.30;9.00;;;16.90;99.90;;;;;;5005685;28;20318;-63
2021/09/15 03:11:23;;;;;;;9.93;9.07;;;16.80;99.90;;;;;;4990084;28;20254;-62
2021/09/15 03:13:52;;;;;;;10.07;9.17;;;16.80;99.90;;;;;;4993844;28;20241;-62
2021/09/15 03:16:25;;;;;;;10.53;9.53;;;16.80;99.90;;;;;;4988006;28;20400;-62
2021/09/15 03:18:58;;;;;;;9.93;8.93;;;16.70;99.90;;;;;;5000162;28;20231;-62
2021/09/15 03:21:26;;;;;;;10.73;9.73;;;16.80;99.90;;;;;;4979577;28;20314;-62
2021/09/15 03:23:54;;;;;;;10.73;9.50;;;16.80;99.90;;;;;;4995682;28;20308;-61
2021/09/15 03:26:23;;;;;;;11.53;10.33;;;16.70;99.90;;;;;;4994998;28;20261;-61
2021/09/15 03:28:51;;;;;;;10.93;9.93;;;16.70;99.90;;;;;;4991207;28;20809;-62
2021/09/15 03:31:20;;;;;;;11.03;9.93;;;16.70;99.90;;;;;;4987409;28;20340;-62
2021/09/15 03:33:53;;;;;;;11.10;10.10;;;16.70;99.90;;;;;;4996703;28;20326;-62
2021/09/15 03:36:21;;;;;;;12.63;10.03;;;16.70;99.90;;;;;;5002978;28;20239;-62
2021/09/15 03:38:49;;;;;;;10.83;9.80;;;16.70;99.90;;;;;;5005568;28;20249;-62
2021/09/15 03:41:19;;;;;;;11.10;10.10;;;16.70;99.90;;;;;;4997278;28;20253;-61
2021/09/15 03:43:47;;;;;;;11.70;10.50;;;16.70;99.90;;;;;;4991899;28;20239;-62
2021/09/15 03:46:16;;;;;;;11.47;10.27;;;16.60;99.90;;;;;;5016909;28;20238;-63
2021/09/15 03:48:45;;;;;;;11.33;10.27;;;16.50;99.90;;;;;;4991872;28;20294;-62
2021/09/15 03:51:15;;;;;;;12.40;11.33;;;16.60;99.90;;;;;;5006820;28;20291;-62
2021/09/15 03:53:43;;;;;;;12.57;11.00;;;16.60;99.90;;;;;;4996850;28;20321;-62
2021/09/15 03:56:11;;;;;;;12.17;11.17;;;16.60;99.90;;;;;;4993624;28;20717;-62
2021/09/15 03:58:40;;;;;;;12.07;11.07;;;16.50;99.90;;;;;;5002864;28;20237;-62
2021/09/15 04:01:10;;;;;;;12.03;10.63;;;16.50;99.90;;;;;;5007147;28;20246;-63
2021/09/15 04:03:38;;;;;;;12.17;11.07;;;16.50;99.90;;;;;;5004219;28;20788;-62
2021/09/15 04:06:07;;;;;;;12.97;11.70;;;16.50;99.90;;;;;;4990398;28;20512;-61
2021/09/15 04:08:36;;;;;;;14.00;12.30;;;16.50;99.90;;;;;;4989164;28;20242;-62
2021/09/15 04:11:04;;;;;;;12.63;11.13;;;16.40;99.90;;;;;;4992761;28;20238;-63
2021/09/15 04:13:33;;;;;;;13.40;11.40;;;16.40;99.90;;;;;;4996873;28;20250;-62
2021/09/15 04:16:01;;;;;;;12.27;11.17;;;16.50;99.90;;;;;;5005278;28;20291;-61
2021/09/15 04:18:31;;;;;;;13.37;11.50;;;16.40;99.90;;;;;;4984845;28;20239;-63
2021/09/15 04:20:59;;;;;;;11.83;10.83;;;16.50;99.90;;;;;;4991108;28;20324;-61
2021/09/15 04:23:31;;;;;;;11.73;10.63;;;16.50;99.90;;;;;;5003072;28;20240;-62
2021/09/15 04:31:32;;;;;;;12.53;11.30;;;16.60;99.90;;;;;;4994174;28;20239;-62
2021/09/15 04:34:04;;;;;;;12.73;11.60;;;16.50;99.90;;;;;;5007230;28;20619;-61
2021/09/15 04:36:59;;;;;;;13.50;12.13;;;16.50;99.90;;;;;;4997983;28;20266;-66
2021/09/15 04:39:34;;;;;;;13.73;12.33;;;16.50;99.90;;;;;;5017240;28;20238;-61
2021/09/15 04:42:09;;;;;;;11.97;10.87;;;16.50;99.90;;;;;;4981039;28;20244;-61
2021/09/15 04:44:37;;;;;;;13.00;11.80;;;16.50;99.90;;;;;;4989640;28;20248;-62
2021/09/15 04:47:06;;;;;;;12.83;11.20;;;16.50;99.90;;;;;;4992984;28;20602;-62
2021/09/15 04:49:34;;;;;;;12.63;11.50;;;16.60;99.90;;;;;;4989746;28;20261;-62
2021/09/15 04:52:04;;;;;;;14.50;11.87;;;16.60;99.90;;;;;;5003081;28;20265;-63
2021/09/15 04:54:32;;;;;;;12.57;11.37;;;16.70;99.90;;;;;;4989183;28;20237;-61
2021/09/15 04:57:01;;;;;;;13.37;12.00;;;16.60;99.90;;;;;;5021352;28;20247;-61
2021/09/15 04:59:30;;;;;;;11.57;10.57;;;16.50;99.90;;;;;;4986553;28;20301;-62
2021/09/15 05:01:59;;;;;;;12.87;11.67;;;16.40;99.90;;;;;;4990007;28;20724;-62
2021/09/15 05:04:27;;;;;;;12.50;11.30;;;16.50;99.90;;;;;;4993794;28;20794;-63
2021/09/15 05:07:17;;;;;;;14.30;12.90;;;16.60;99.90;;;;;;4989999;28;20654;-61
2021/09/15 05:09:46;;;;;;;13.70;12.50;;;16.50;99.90;;;;;;5013217;28;20237;-62
2021/09/15 05:12:14;;;;;;;13.17;11.77;;;16.40;99.90;;;;;;4996898;28;20242;-63
2021/09/15 05:14:44;;;;;;;14.63;12.83;;;16.40;99.90;;;;;;4989802;28;20721;-61
2021/09/15 05:17:13;;;;;;;12.87;11.77;;;16.40;99.90;;;;;;5001110;28;20241;-62
2021/09/15 05:19:41;;;;;;;12.43;11.23;;;16.40;99.90;;;;;;5008918;28;20610;-62
2021/09/15 05:22:09;;;;;;;13.17;11.97;;;16.40;99.90;;;;;;5000464;28;20560;-63
2021/09/15 05:24:37;;;;;;;13.07;11.87;;;16.40;99.90;;;;;;5003884;28;20671;-63
2021/09/15 05:27:06;;;;;;;14.33;12.03;;;16.40;99.90;;;;;;4995008;28;20296;-62
2021/09/15 05:29:34;;;;;;;12.70;11.50;;;16.40;99.90;;;;;;4992541;28;20305;-62
2021/09/15 05:32:05;;;;;;;12.60;11.43;;;16.40;99.90;;;;;;4987865;28;20539;-63
2021/09/15 05:34:34;;;;;;;13.10;11.73;;;16.50;99.90;;;;;;5010039;28;20249;-62
2021/09/15 05:37:02;;;;;;;14.77;12.47;;;16.60;99.90;;;;;;4997543;28;20263;-62
2021/09/15 05:39:30;;;;;;;12.23;11.20;;;16.70;99.90;;;;;;4991440;28;20238;-62
2021/09/15 05:41:59;;;;;;;13.00;11.30;;;16.70;99.90;;;;;;4997878;28;20757;-62
2021/09/15 05:44:27;;;;;;;13.13;11.83;;;16.70;99.90;;;;;;4979250;28;20266;-63
2021/09/15 05:46:56;;;;;;;12.73;10.90;;;16.80;99.90;;;;;;5001683;28;20309;-63
2021/09/15 05:49:27;;;;;;;13.07;10.97;;;16.70;99.90;;;;;;4987132;28;20238;-63
2021/09/15 05:51:55;;;;;;;12.30;11.03;;;16.70;99.90;;;;;;5004102;28;20274;-62
2021/09/15 05:54:24;;;;;;;12.37;11.13;;;16.70;99.90;;;;;;4993013;28;20233;-62
2021/09/15 05:56:52;;;;;;;11.50;10.40;;;16.70;99.90;;;;;;4983647;28;20912;-62
2021/09/15 05:59:20;;;;;;;12.90;11.70;;;16.70;99.90;;;;;;4976698;28;20235;-62
2021/09/15 06:01:49;;;;;;;13.17;11.90;;;16.90;99.90;;;;;;4995371;28;20736;-63
2021/09/15 06:04:18;;;;;;;13.20;11.83;;;16.90;99.90;;;;;;4991232;28;20658;-63
2021/09/15 06:06:59;;;;;;;12.80;11.60;;;16.80;99.90;;;;;;4997259;28;20241;-62
2021/09/15 06:09:28;;;;;;;12.50;11.30;;;16.80;99.90;;;;;;4992771;28;20581;-63
2021/09/15 06:11:57;;;;;;;12.63;11.27;;;16.80;99.90;;;;;;4978217;28;20240;-62
2021/09/15 06:14:27;;;;;;;12.90;10.93;;;16.90;99.90;;;;;;4973972;28;20928;-62
2021/09/15 06:16:55;;;;;;;13.60;11.13;;;16.90;99.90;;;;;;4998556;28;20517;-62
2021/09/15 06:19:24;;;;;;;12.80;11.60;;;16.80;99.90;;;;;;4976796;28;20258;-62
2021/09/15 06:21:55;;;;;;;11.80;10.63;;;16.80;99.90;;;;;;4981293;28;20322;-62
2021/09/15 06:24:43;;;;;;;11.70;10.57;;;16.70;99.90;;;;;;4979472;28;20249;-61
2021/09/15 06:27:11;;;;;;;13.70;12.40;;;16.70;99.90;;;;;;4993403;28;20817;-62
2021/09/15 06:29:39;;;;;;;14.23;12.93;;;16.70;99.90;;;;;;4977365;28;20722;-63
2021/09/15 06:32:08;;;;;;;12.87;11.57;;;16.60;99.90;;;;;;4980454;28;20242;-63
2021/09/15 06:34:36;;;;;;;12.10;11.00;;;16.70;99.90;;;;;;4993506;28;20267;-62
2021/09/15 06:37:05;;;;;;;14.90;13.50;;;16.70;99.90;;;;;;4979643;28;20516;-63
2021/09/15 06:39:33;;;;;;;13.27;11.97;;;16.70;99.90;;;;;;4981234;28;20344;-61
2021/09/15 06:42:03;;;;;;;13.27;11.97;;;16.70;99.90;;;;;;4978542;28;20654;-62
2021/09/15 06:44:31;;;;;;;13.47;12.27;;;16.70;99.90;;;;;;4976162;28;20323;-63
2021/09/15 06:46:59;;;;;;;14.23;12.73;;;16.70;99.90;;;;;;4979575;28;20329;-63
2021/09/15 06:49:27;;;;;;;14.37;12.97;;;16.60;99.90;;;;;;4981071;28;20786;-62
2021/09/15 06:51:56;;;;;;;14.83;13.33;;;16.50;99.90;;;;;;4981137;28;20578;-63
2021/09/15 06:54:24;;;;;;;15.13;13.50;;;16.50;99.90;;;;;;4985675;28;20327;-64
2021/09/15 06:56:52;;;;;;;14.70;13.13;;;16.50;99.90;;;;;;4985789;28;20520;-63
2021/09/15 06:59:23;;;;;;;15.17;13.57;;;16.50;99.90;;;;;;4982035;28;20330;-62
2021/09/15 07:01:52;;;;;;;14.83;13.43;;;16.50;99.90;;;;;;4980067;28;20360;-62
2021/09/15 07:04:20;;;;;;;15.40;14.00;;;16.50;99.90;;;;;;4983478;28;20254;-62
2021/09/15 07:06:48;;;;;;;14.40;13.10;;;16.50;99.90;;;;;;4980879;28;20325;-63
2021/09/15 07:09:16;;;;;;;14.20;12.97;;;16.50;99.90;;;;;;4988432;28;20254;-63
2021/09/15 07:11:44;;;;;;;16.57;14.97;;;16.60;99.90;;;;;;4983556;28;20252;-62
2021/09/15 07:14:13;;;;;;;17.37;15.27;;;16.60;99.90;;;;;;4981870;28;20243;-62
2021/09/15 07:16:42;;;;;;;15.70;14.20;;;16.60;99.90;;;;;;4979799;28;20660;-62
2021/09/15 07:19:10;;;;;;;14.87;13.43;;;16.70;99.90;;;;;;4981325;28;20242;-64
2021/09/15 07:21:38;;;;;;;14.73;13.23;;;16.70;99.90;;;;;;4981950;28;20247;-64
2021/09/15 07:24:06;;;;;;;16.10;14.60;;;16.70;99.90;;;;;;4994792;28;20727;-62
2021/09/15 07:26:35;;;;;;;15.43;13.93;;;16.70;99.90;;;;;;4992438;28;20369;-62
2021/09/15 07:29:03;;;;;;;16.17;14.67;;;16.60;99.90;;;;;;4988546;28;20247;-62
2021/09/15 07:31:37;;;;;;;16.00;14.40;;;16.60;99.90;;;;;;4987326;28;20478;-62
2021/09/15 07:34:07;;;;;;;16.77;15.00;;;16.60;99.90;;;;;;4983959;28;20746;-62
2021/09/15 07:36:36;;;;;;;16.73;15.10;;;16.60;99.90;;;;;;4989573;28;20253;-62
2021/09/15 07:39:04;;;;;;;17.27;15.53;;;16.50;99.90;;;;;;4985036;28;20783;-61
2021/09/15 07:41:33;;;;;;;16.27;14.67;;;16.60;99.90;;;;;;4986683;28;20261;-63
2021/09/15 07:44:01;;;;;;;15.70;14.10;;;16.50;99.90;;;;;;4990216;28;21115;-61
2021/09/15 07:46:29;;;;;;;15.87;14.37;;;16.60;99.90;;;;;;4978574;28;20240;-61
2021/09/15 07:48:57;;;;;;;15.60;14.10;;;16.70;99.90;;;;;;4989062;28;20292;-61
2021/09/15 07:51:27;;;;;;;16.97;15.37;;;16.80;99.90;;;;;;4990138;28;20329;-62
2021/09/15 07:53:55;;;;;;;17.90;16.10;;;16.70;99.90;;;;;;4991048;28;20238;-62
2021/09/15 07:56:24;;;;;;;16.53;15.07;;;16.70;99.90;;;;;;4991597;28;20296;-61
2021/09/15 07:58:52;;;;;;;15.60;14.00;;;16.70;99.90;;;;;;4994556;28;20239;-62
2021/09/15 08:01:22;;;;;;;16.30;14.57;;;16.80;99.90;;;;;;4980302;28;20238;-62
2021/09/15 08:03:51;;;;;;;15.70;14.30;;;16.80;99.90;;;;;;4978652;28;20249;-63
2021/09/15 08:06:19;;;;;;;15.97;14.47;;;16.80;99.90;;;;;;4981825;28;20234;-62
2021/09/15 08:08:48;;;;;;;16.40;15.00;;;16.80;99.90;;;;;;4979479;28;20322;-62
2021/09/15 08:11:17;;;;;;;17.33;15.70;;;16.80;99.90;;;;;;4978889;28;20729;-61
2021/09/15 08:13:45;;;;;;;18.40;16.47;;;16.80;99.90;;;;;;4976778;28;20353;-62
2021/09/15 08:16:13;;;;;;;18.57;16.67;;;16.80;99.90;;;;;;4977130;28;20734;-63
2021/09/15 08:18:41;;;;;;;17.20;15.53;;;16.90;99.90;;;;;;4977268;28;21013;-63
2021/09/15 08:21:09;;;;;;;16.30;14.70;;;17.00;99.90;;;;;;4983062;28;20241;-63
2021/09/15 08:23:38;;;;;;;15.30;13.80;;;17.10;99.90;;;;;;4972306;28;20250;-62
2021/09/15 08:26:07;;;;;;;14.77;13.43;;;17.10;99.90;;;;;;4977851;28;20599;-61
2021/09/15 08:28:37;;;;;;;14.83;13.40;;;17.20;99.90;;;;;;4975461;28;20245;-61
2021/09/15 08:31:05;;;;;;;16.33;14.83;;;17.10;99.90;;;;;;4980758;28;20245;-62
2021/09/15 08:33:33;;;;;;;15.80;14.40;;;17.10;99.90;;;;;;4988767;28;20299;-61
2021/09/15 08:36:01;;;;;;;16.17;14.70;;;17.10;99.90;;;;;;4983327;28;20631;-61
2021/09/15 08:38:29;;;;;;;14.97;13.70;;;17.10;99.90;;;;;;4973815;28;20240;-61
2021/09/15 08:40:58;;;;;;;15.90;14.47;;;17.20;99.90;;;;;;4978904;28;20327;-63
2021/09/15 08:43:29;;;;;;;16.87;15.37;;;17.10;99.90;;;;;;4976258;28;20237;-62
2021/09/15 08:46:01;;;;;;;16.70;15.20;;;17.20;99.90;;;;;;4983363;28;20809;-63
2021/09/15 08:48:34;;;;;;;17.00;15.33;;;17.20;99.90;;;;;;4981449;28;20275;-62
2021/09/15 08:51:03;;;;;;;16.10;14.50;;;17.20;99.90;;;;;;4974433;28;20675;-62
2021/09/15 08:53:31;;;;;;;14.37;12.97;;;17.20;99.90;;;;;;4981768;28;20248;-61
2021/09/15 08:55:59;;;;;;;15.47;13.97;;;17.20;99.90;;;;;;4983713;28;20548;-63
2021/09/15 08:58:29;;;;;;;16.83;15.13;;;17.20;99.90;;;;;;4983458;28;20248;-64
2021/09/15 09:01:08;;;;;;;17.70;16.03;;;17.20;99.90;;;;;;4982103;28;20242;-61
2021/09/15 09:03:36;;;;;;;16.67;15.07;;;17.30;99.90;;;;;;4981499;28;20238;-63
2021/09/15 09:06:11;;;;;;;16.77;15.10;;;17.20;99.90;;;;;;4980816;28;20239;-62
2021/09/15 09:08:40;;;;;;;18.20;16.43;;;17.20;99.90;;;;;;4975469;28;20315;-61
2021/09/15 09:11:09;;;;;;;17.07;15.57;;;17.30;99.90;;;;;;4987706;28;20248;-62
2021/09/15 09:13:48;;;;;;;16.03;14.53;;;17.20;99.90;;;;;;4987327;28;20341;-62
2021/09/15 09:16:18;;;;;;;19.40;17.50;;;17.30;99.90;;;;;;4980571;28;20288;-62
2021/09/15 09:19:00;;;;;;;18.60;16.90;;;17.20;99.90;;;;;;4989390;28;20281;-61
2021/09/15 09:21:31;;;;;;;17.23;15.50;;;17.20;99.90;;;;;;4983740;28;20880;-62
2021/09/15 09:24:00;;;;;;;18.20;16.50;;;17.20;99.90;;;;;;4986437;28;20243;-62
2021/09/15 09:26:47;;;;;;;19.40;17.53;;;17.20;99.90;;;;;;4976221;28;20249;-61
2021/09/15 09:29:22;;;;;;;18.37;16.67;;;17.20;99.90;;;;;;4986955;28;20238;-63
2021/09/15 09:31:57;;;;;;;18.87;16.90;;;17.20;99.90;;;;;;4980577;28;20238;-62
2021/09/15 09:34:26;;;;;;;19.80;17.90;;;17.20;99.90;;;;;;4979504;28;20323;-62
2021/09/15 09:37:04;;;;;;;19.07;17.07;;;17.20;99.90;;;;;;4980326;28;20590;-63
2021/09/15 09:39:41;;;;;;;20.20;18.27;;;17.20;99.90;;;;;;4978061;28;20714;-62
2021/09/15 09:42:32;;;;;;;17.83;16.13;;;17.20;99.90;;;;;;4981229;28;20783;-63
2021/09/15 09:45:15;;;;;;;19.27;17.47;;;17.20;99.90;;;;;;4996510;28;20762;-61
2021/09/15 09:47:46;;;;;;;19.37;17.67;;;17.30;99.90;;;;;;4980927;28;20238;-62
2021/09/15 09:50:16;;;;;;;16.83;15.33;;;17.30;99.90;;;;;;4975870;28;20576;-62
2021/09/15 09:52:54;;;;;;;17.27;15.73;;;17.40;99.90;;;;;;4993448;28;20242;-63
2021/09/15 09:55:37;;;;;;;18.29;16.51;;;17.40;99.90;;;;;;1204153;28;10023687;-62
2021/09/15 09:58:07;;;;;;;19.97;18.07;;;17.50;99.90;;;;;;4965720;28;20509;-62
2021/09/15 10:00:38;;;;;;;16.73;15.43;;;17.60;99.90;;;;;;4961047;28;20730;-62
2021/09/15 10:03:07;;;;;;;18.43;16.77;;;17.70;99.90;;;;;;4958809;28;20716;-62
2021/09/15 10:05:36;;;;;;;19.60;17.80;;;17.70;99.90;;;;;;4962036;28;20247;-62
2021/09/15 10:08:06;;;;;;;18.97;17.10;;;17.50;99.90;;;;;;4962193;28;20252;-62
2021/09/15 10:10:35;;;;;;;20.43;18.53;;;17.60;99.90;;;;;;4958667;28;20712;-61
2021/09/15 10:13:06;;;;;;;19.33;17.63;;;17.60;99.90;;;;;;4961466;28;20799;-62
2021/09/15 10:15:46;;;;;;;18.70;16.80;;;17.50;99.90;;;;;;4960334;28;20255;-62
2021/09/15 10:18:15;;;;;;;20.27;18.47;;;17.50;99.90;;;;;;4957185;28;20269;-62
2021/09/15 10:20:47;;;;;;;20.97;19.10;;;17.50;99.90;;;;;;4959921;28;20249;-63
2021/09/15 10:23:39;;;;;;;20.17;18.20;;;17.50;99.90;;;;;;4961776;28;20330;-61
2021/09/15 10:26:36;;;;;;;17.63;15.93;;;17.60;99.90;;;;;;4963731;28;20334;-62
2021/09/15 10:29:34;;;;;;;16.27;14.83;;;17.60;99.90;;;;;;4978751;28;20332;-62
2021/09/15 10:32:06;;;;;;;17.57;16.03;;;17.60;99.90;;;;;;4979256;28;20812;-62
2021/09/15 10:34:50;;;;;;;19.33;17.50;;;17.60;99.90;;;;;;4978484;28;20276;-61
2021/09/15 10:37:53;;;;;;;19.93;18.13;;;17.50;99.90;;;;;;4979070;28;20271;-61
2021/09/15 10:40:36;;;;;;;19.13;17.30;;;17.40;99.90;;;;;;4978721;28;20289;-63
2021/09/15 10:43:05;;;;;;;20.00;18.10;;;17.40;99.90;;;;;;4979242;28;20304;-62
2021/09/15 10:45:34;;;;;;;18.63;17.00;;;17.40;99.90;;;;;;4983504;28;20658;-63
2021/09/15 10:48:14;;;;;;;19.30;17.50;;;17.50;99.90;;;;;;4989045;28;20724;-62
2021/09/15 10:50:53;;;;;;;19.53;17.63;;;17.40;99.90;;;;;;4982501;28;20263;-62
2021/09/15 10:53:30;;;;;;;18.10;16.40;;;17.50;99.90;;;;;;4990102;28;20266;-62
2021/09/15 10:56:00;;;;;;;17.17;15.67;;;17.50;99.90;;;;;;4990601;28;20242;-62
2021/09/15 10:58:30;;;;;;;17.43;15.93;;;17.60;99.90;;;;;;4987283;28;20248;-62
2021/09/15 11:00:59;;;;;;;18.00;16.23;;;17.60;99.90;;;;;;4984958;28;20413;-62
2021/09/15 11:03:31;;;;;;;17.50;15.90;;;17.60;99.90;;;;;;4991896;28;20242;-64
2021/09/15 11:06:20;;;;;;;18.23;16.63;;;17.50;99.90;;;;;;4996974;28;20243;-63
2021/09/15 11:08:49;;;;;;;18.23;16.63;;;17.50;99.90;;;;;;4996387;28;20236;-63
2021/09/15 11:11:49;;;;;;;18.00;16.30;;;17.40;99.90;;;;;;4984040;28;20246;-62
2021/09/15 11:14:18;;;;;;;16.10;14.70;;;17.40;99.90;;;;;;4989467;28;20250;-63
2021/09/15 11:16:47;;;;;;;17.60;15.80;;;17.40;99.90;;;;;;4986399;28;20243;-64
2021/09/15 11:19:18;;;;;;;18.43;16.83;;;17.40;99.90;;;;;;4999866;28;20237;-62
2021/09/15 11:21:49;;;;;;;18.20;16.50;;;17.40;99.90;;;;;;4979258;28;20260;-64
2021/09/15 11:24:21;;;;;;;18.37;16.60;;;17.40;99.90;;;;;;4980415;28;20244;-62
2021/09/15 11:26:52;;;;;;;20.00;18.13;;;17.40;99.90;;;;;;4981969;28;20239;-63
2021/09/15 11:29:50;;;;;;;20.50;18.60;;;17.30;99.90;;;;;;4981675;28;20299;-62
2021/09/15 11:32:20;;;;;;;21.07;19.17;;;17.30;99.90;;;;;;4967499;28;20331;-63
2021/09/15 11:34:51;;;;;;;20.57;18.77;;;17.30;99.90;;;;;;4984876;28;20731;-62
2021/09/15 11:37:22;;;;;;;19.77;17.93;;;17.30;99.90;;;;;;4983026;28;20267;-63
2021/09/15 11:39:57;;;;;;;19.63;16.73;;;17.30;99.90;;;;;;4981040;28;20575;-62
2021/09/15 11:42:28;;;;;;;18.80;17.20;;;17.30;99.90;;;;;;4982146;28;20623;-64
2021/09/15 11:44:57;;;;;;;18.97;17.27;;;17.30;99.90;;;;;;4979948;28;20377;-63
2021/09/15 11:47:27;;;;;;;21.50;19.50;;;17.40;99.90;;;;;;4979477;28;20380;-64
2021/09/15 11:49:56;;;;;;;19.73;17.93;;;17.40;99.90;;;;;;4982672;28;20248;-64
2021/09/15 11:52:25;;;;;;;20.97;19.07;;;17.40;99.90;;;;;;4979756;28;20300;-63
2021/09/15 11:54:58;;;;;;;19.23;17.43;;;17.40;99.90;;;;;;4982662;28;20238;-62
2021/09/15 11:57:32;;;;;;;19.97;18.10;;;17.40;99.90;;;;;;4981795;28;20285;-61
2021/09/15 12:00:02;;;;;;;19.37;17.53;;;17.40;99.90;;;;;;4981393;28;20596;-63
2021/09/15 12:02:30;;;;;;;20.23;18.33;;;17.40;99.90;;;;;;4977770;28;20243;-64
2021/09/15 12:05:01;;;;;;;19.13;17.50;;;17.40;99.90;;;;;;4980040;28;20693;-63
2021/09/15 12:07:29;;;;;;;22.40;20.30;;;17.50;99.90;;;;;;4979748;28;20406;-62
2021/09/15 12:09:58;;;;;;;21.37;19.47;;;17.40;99.90;;;;;;4980981;28;20262;-63
2021/09/15 12:12:28;;;;;;;21.23;19.40;;;17.40;99.90;;;;;;4982127;28;20292;-61
2021/09/15 12:14:58;;;;;;;23.10;20.90;;;17.40;99.90;;;;;;4981087;28;20277;-64
2021/09/15 12:17:30;;;;;;;22.20;20.10;;;17.40;99.90;;;;;;4979391;28;20304;-62
2021/09/15 12:19:59;;;;;;;23.47;21.40;;;17.40;99.90;;;;;;4980634;28;20252;-63
2021/09/15 12:22:31;;;;;;;22.33;20.33;;;17.30;99.90;;;;;;4982935;28;20285;-63
2021/09/15 12:25:01;;;;;;;23.40;21.30;;;17.30;99.90;;;;;;4982170;28;20786;-63
2021/09/15 12:27:31;;;;;;;21.80;19.93;;;17.20;99.90;;;;;;4980797;28;20731;-63
2021/09/15 12:30:01;;;;;;;23.10;20.97;;;17.30;99.90;;;;;;4983813;28;20239;-63
2021/09/15 12:32:31;;;;;;;21.57;19.67;;;17.30;99.90;;;;;;4981738;28;20245;-62
2021/09/15 12:35:01;;;;;;;20.97;18.97;;;17.30;99.90;;;;;;4978376;28;21028;-63
2021/09/15 12:37:38;;;;;;;19.13;17.43;;;17.40;99.90;;;;;;4982817;28;20263;-62
2021/09/15 12:40:17;;;;;;;20.33;18.53;;;17.40;99.90;;;;;;4980411;28;20744;-64
2021/09/15 12:42:59;;;;;;;18.47;16.97;;;17.50;99.90;;;;;;4978133;28;20373;-62
2021/09/15 12:45:28;;;;;;;17.90;16.40;;;17.50;99.90;;;;;;4979154;28;20242;-62
2021/09/15 12:47:57;;;;;;;17.93;16.23;;;17.60;99.90;;;;;;4981530;28;20242;-62
2021/09/15 12:50:28;;;;;;;17.97;16.47;;;17.60;99.90;;;;;;4981714;28;20797;-63
2021/09/15 12:53:06;;;;;;;18.77;16.97;;;17.60;99.90;;;;;;4982776;28;20341;-64
2021/09/15 12:55:40;;;;;;;17.47;15.97;;;17.60;99.90;;;;;;4980779;28;20872;-64
2021/09/15 12:58:09;;;;;;;18.00;16.50;;;17.60;99.90;;;;;;4982831;28;20269;-63
2021/09/15 13:00:42;;;;;;;16.80;15.27;;;17.60;99.90;;;;;;4982047;28;20236;-63
2021/09/15 13:03:12;;;;;;;17.17;15.53;;;17.60;99.90;;;;;;4981087;28;20246;-62